Heliodora, Brazil
Current Conditions -  °F | °C
As of 6:35 AM on Monday 26 Jan 2015 (Local Time) from SBGW Reporting Station
Broken Clouds Broken Clouds  
Wind Chill: 70°   Ceiling: 8000
Heat Index: 70°   Visibility: 5mi
Dew Point: 66°   Wind: 3mph
Humidity: 88%   Direction: 250°WSW
Pressure: 30"   Gusts: NA
Location:  22.07°S, 45.54°W
Report Text: SBGW 260835Z 25003KT 8000 3500SW SCT006 BKN080 21/19 Q1016
Loading
Personal Weather Stations






























Interactive Weather Map New forecast layout! Learn more

10-Day Weather Forecast

Advertisements
Track Severe Weather on mobile